Condiciones actuales en los principales Aeropuertos de España-Datos Metar

 

LEAL - Alicante
Actualización: 12/12/2019 04:00
Despejado
Despejado
 Viento del O
Viento: O 33 km/h
Temperatura: 11°C
Rocío: 2°C
Humedad: 54%
Barómetro: 1021 hPa
Resumen: Despejado
Visibilidad: greater than 10 km
2019/12/12 03:00 LEAL 120300Z 28018KT CAVOK 11/02 Q1021 NOSIG
LEAB - Albacete
Actualización: 12/12/2019 04:00
Despejado
Despejado
 Viento del O
Viento: O 19 km/h
Temperatura: 4°C
Wind Chill: 0°C
Rocío: 3°C
Humedad: 93%
Barómetro: 1024 hPa
Resumen: Despejado
Visibilidad: greater than 10 km
2019/12/12 03:00 LEAB 120300Z 28010KT CAVOK 04/03 Q1024 NOSIG
LEAM - Almería
Actualización: 12/12/2019 04:00
Despejado
Despejado
 Viento del N
Viento: N 11 km/h
Temperatura: 11°C
Rocío: 3°C
Humedad: 58%
Barómetro: 1023 hPa
Nubosidad: Despejado
Visibilidad: 10 km
2019/12/12 03:00 LEAM 120300Z AUTO 35006KT 9999 NCD 11/03 Q1023
 
LEAS - Asturias/Aviles
Actualización: 12/12/2019 04:00
Cubierto
Cubierto
 Viento del OSO
Viento: OSO 17 km/h
Temperatura: 11°C
Rocío: 7°C
Humedad: 77%
Barómetro: 1018 hPa
Nubosidad: Cubierto
Visibilidad: 10 km
Cloud details: Partly Cloudy 1524 m
Partly Cloudy 1707 m
Cubierto 2073 m
2019/12/12 03:00 LEAS 120300Z AUTO 24009KT 210V280 9999 SCT050 SCT056 OVC068 11/07 Q1018
LEBZ - Badajoz/Talavera la Real
Actualización: 11/12/2019 21:00
NO Actualizado
Despejado
Despejado
 Viento del ONO
Viento: ONO 7 km/h
Temperatura: 8°C
Wind Chill: 7°C
Rocío: 4°C
Humedad: 76%
Barómetro: 1029 hPa
Resumen: Despejado
Visibilidad: greater than 10 km
2019/12/11 20:00 LEBZ 112000Z 30004KT 220V330 CAVOK 08/04 Q1029
LEBL - Barcelona
Actualización: 12/12/2019 04:00
Few Clouds
Few Clouds
 Viento del ONO
Viento: ONO 26 km/h
Temperatura: 10°C
Wind Chill: 7°C
Rocío: 2°C
Humedad: 58%
Barómetro: 1016 hPa
Nubosidad: Few Clouds
Visibilidad: 10 km
Cloud details: Few Clouds 610 m
2019/12/12 03:00 LEBL 120300Z 29014KT 9999 FEW020 10/02 Q1016 NOSIG
 
LEBB - Bilbao
Actualización: 12/12/2019 04:00
Lluvia débil, Muy nuboso
Lluvia débil, Muy nuboso
 Viento del calm
Viento: Calma
Temperatura: 9°C
Rocío: 8°C
Humedad: 94%
Barómetro: 1019 hPa
Resumen: Light Rain
Nubosidad: Mostly Cloudy
Visibilidad: 10 km
Cloud details: Mostly Cloudy 1189 m
Mostly Cloudy 1433 m
Mostly Cloudy 1676 m
2019/12/12 03:00 LEBB 120300Z AUTO 00000KT 9999 -RA BKN039 BKN047 BKN055 09/08 Q1019
LEBG - Burgos/Villafría
Actualización: 12/12/2019 04:00
Mostly Cloudy
Mostly Cloudy
 Viento del SO
Viento: SO 22 km/h
Temperatura: 3°C
Wind Chill: -2°C
Rocío: 2°C
Humedad: 93%
Barómetro: 1020 hPa
Nubosidad: Mostly Cloudy
Visibilidad: 10 km
Cloud details: Mostly Cloudy 274 m
Mostly Cloudy 701 m
2019/12/12 03:00 LEBG 120300Z AUTO 22012KT 9999 BKN009 BKN023 03/02 Q1020
LEBA - Córdoba
Actualización: 12/12/2019 04:00
Despejado
Despejado
 Viento del S
Viento: S 2 km/h
Temperatura: 2°C
Rocío: 2°C
Humedad: 100%
Barómetro: 1028 hPa
Resumen: Despejado
Visibilidad: greater than 10 km
2019/12/12 03:00 LEBA 120300Z AUTO 19001KT CAVOK 02/02 Q1028
 
LEGE - Gerona
Actualización: 12/12/2019 04:00
Patches of fog, Cubierto
Patches of fog, Cubierto
 Viento del varies
Viento: varies 4 km/h
Temperatura: 2°C
Rocío: 2°C
Humedad: 100%
Barómetro: 1014 hPa
Resumen: Patches of Fog
Nubosidad: Cubierto
Visibilidad: 1 km
Cloud details: Cubierto 61 m
2019/12/12 03:00 LEGE 120300Z VRB02KT 0500 R20/P2000 BCFG VV002 02/02 Q1014
LEGR - Granada
Actualización: 12/12/2019 04:00
Despejado
Despejado
 Viento del calm
Viento: Calma
Temperatura: 1°C
Rocío: 0°C
Humedad: 93%
Barómetro: 1026 hPa
Nubosidad: Despejado
Visibilidad: 10 km
2019/12/12 03:00 LEGR 120300Z AUTO 00000KT 9999 NCD 01/00 Q1026
GCHI - Hierro
Actualización: 12/12/2019 04:00
Few Clouds
Few Clouds
 Viento del NE
Viento: NE 33 km/h
Temperatura: 19°C
Rocío: 14°C
Humedad: 73%
Barómetro: 1026 hPa
Nubosidad: Few Clouds
Visibilidad: 10 km
Cloud details: Few Clouds 792 m
2019/12/12 03:00 GCHI 120300Z AUTO 04018KT 360V060 9999 FEW026 19/14 Q1026
 
LEIB - Ibiza
Actualización: 12/12/2019 00:00
NO Actualizado
Despejado
Despejado
 Viento del ONO
Viento: ONO 15 km/h
Temperatura: 14°C
Rocío: 5°C
Humedad: 55%
Barómetro: 1020 hPa
Resumen: Despejado
Visibilidad: greater than 10 km
2019/12/11 23:00 LEIB 112300Z 30008KT CAVOK 14/05 Q1020 NOSIG
LEJR - Jerez de la Frontera
Actualización: 12/12/2019 04:00
Despejado
Despejado
 Viento del NO
Viento: NO 7 km/h
Temperatura: 5°C
Wind Chill: 3°C
Rocío: 4°C
Humedad: 93%
Barómetro: 1028 hPa
Nubosidad: Despejado
Visibilidad: 10 km
2019/12/12 03:00 LEJR 120300Z AUTO 31004KT 9999 NCD 05/04 Q1028
LECO - A Coruña
Actualización: 12/12/2019 04:00
Lluvia débil, Parcialmente nublado
Lluvia débil, Parcialmente nublado
 Viento del O
Viento: O 19 km/h, Racha: 39 km/h
Temperatura: 11°C
Rocío: 9°C
Humedad: 88%
Barómetro: 1021 hPa
Resumen: Light Rain
Nubosidad: Partly Cloudy
Visibilidad: 10 km
2019/12/12 03:00 LECO 120300Z AUTO 27010G21KT 210V310 9999 -RA NSC 11/09 Q1021
 
GCLA - La Palma
Actualización: 12/12/2019 04:00
Despejado
Despejado
 Viento del NNO
Viento: NNO 19 km/h
Temperatura: 18°C
Rocío: 12°C
Humedad: 68%
Barómetro: 1028 hPa
Nubosidad: Despejado
Visibilidad: 10 km
2019/12/12 03:00 GCLA 120300Z AUTO 33010KT 9999 NCD 18/12 Q1028
GCRR - Lanzarote
Actualización: 12/12/2019 04:00
Despejado
Despejado
 Viento del NNE
Viento: NNE 26 km/h
Temperatura: 18°C
Rocío: 13°C
Humedad: 73%
Barómetro: 1026 hPa
Nubosidad: Despejado
Visibilidad: 10 km
2019/12/12 03:00 GCRR 120300Z AUTO 03014KT 9999 NCD 18/13 Q1026
GCLP - Las Palmas
Actualización: 12/12/2019 04:00
Partly Cloudy
Partly Cloudy
 Viento del N
Viento: N 26 km/h
Temperatura: 18°C
Rocío: 12°C
Humedad: 68%
Barómetro: 1026 hPa
Nubosidad: Partly Cloudy
Visibilidad: 10 km
Cloud details: Partly Cloudy 853 m
2019/12/12 03:00 GCLP 120300Z 01014KT 9999 SCT028 18/12 Q1026 NOSIG
 
LELN - León
Actualización: 12/12/2019 01:00
NO Actualizado
Mostly Cloudy
Mostly Cloudy
 Viento del OSO
Viento: OSO 19 km/h
Temperatura: 4°C
Wind Chill: 0°C
Rocío: 3°C
Humedad: 93%
Barómetro: 1022 hPa
Nubosidad: Mostly Cloudy
Visibilidad: 10 km
Cloud details: Mostly Cloudy 366 m
2019/12/12 00:00 LELN 120000Z AUTO 25010KT 220V290 9999 BKN012 04/03 Q1022
LELO - Logroño
Actualización: 12/12/2019 04:00
Cubierto
Cubierto
 Viento del O
Viento: O 26 km/h
Temperatura: 8°C
Wind Chill: 4°C
Rocío: 3°C
Humedad: 71%
Barómetro: 1019 hPa
Nubosidad: Cubierto
Visibilidad: 10 km
Cloud details: Few Clouds 1829 m
Cubierto 2286 m
2019/12/12 03:00 LELO 120300Z AUTO 28014KT 250V310 9999 FEW060 OVC075 08/03 Q1019
LECV - Madrid/Colmenar
Actualización: 11/12/2019 19:00
NO Actualizado
Few Clouds
Few Clouds
 Viento del NNO
Viento: NNO 9 km/h
Temperatura: 6°C
Wind Chill: 4°C
Rocío: -4°C
Humedad: 49%
Barómetro: 1023 hPa
Nubosidad: Few Clouds
Visibilidad: 10 km
Cloud details: Few Clouds 1219 m
2019/12/11 18:00 LECV 111800Z 34005KT 9999 FEW040 06/M04 Q1023
 
LEMD - Madrid/Barajas
Actualización: 12/12/2019 04:00
Despejado
Despejado
 Viento del O
Viento: O 24 km/h
Temperatura: 8°C
Wind Chill: 4°C
Rocío: 1°C
Humedad: 62%
Barómetro: 1022 hPa
Resumen: Despejado
Visibilidad: greater than 10 km
2019/12/12 03:00 LEMD 120300Z 26013KT CAVOK 08/01 Q1022 NOSIG
LEVS - Madrid/Cuatro Vientos
Actualización: 11/12/2019 22:30
NO Actualizado
Despejado
Despejado
 Viento del OSO
Viento: OSO 19 km/h
Temperatura: 5°C
Wind Chill: 1°C
Rocío: 1°C
Humedad: 76%
Barómetro: 1025 hPa
Resumen: Despejado
Visibilidad: greater than 10 km
2019/12/11 21:30 LEVS 112130Z 24010KT CAVOK 05/01 Q1025
LEGT - Madrid/Getafe
Actualización: 11/12/2019 23:00
NO Actualizado
Despejado
Despejado
 Viento del ONO
Viento: ONO 20 km/h
Temperatura: 7°C
Wind Chill: 4°C
Rocío: 1°C
Humedad: 66%
Barómetro: 1025 hPa
Resumen: Despejado
Visibilidad: greater than 10 km
2019/12/11 22:00 LEGT 112200Z 29011KT CAVOK 07/01 Q1025
 
LETO - Madrid/Torrejón
Actualización: 12/12/2019 04:00
Despejado
Despejado
 Viento del SSO
Viento: SSO 6 km/h
Temperatura: 4°C
Rocío: 1°C
Humedad: 81%
Barómetro: 1023 hPa
Resumen: Despejado
Visibilidad: greater than 10 km
2019/12/12 03:00 LETO 120300Z 20003KT CAVOK 04/01 Q1023 NOSIG
LEMG - Málaga
Actualización: 12/12/2019 04:00
Despejado
Despejado
 Viento del ONO
Viento: ONO 35 km/h, Racha: 54 km/h
Temperatura: 12°C
Rocío: 3°C
Humedad: 54%
Barómetro: 1025 hPa
Resumen: Despejado
Visibilidad: greater than 10 km
2019/12/12 03:00 LEMG 120300Z 29019G29KT CAVOK 12/03 Q1025 NOSIG
GEML - Melilla
Actualización: 12/12/2019 04:00
Few Clouds
Few Clouds
 Viento del O
Viento: O 20 km/h
Temperatura: 15°C
Rocío: 10°C
Humedad: 72%
Barómetro: 1024 hPa
Nubosidad: Few Clouds
Visibilidad: 10 km
Cloud details: Few Clouds 640 m
2019/12/12 03:00 GEML 120300Z AUTO 27011KT 230V300 9999 FEW021 15/10 Q1024
 
LEMH - Mahón
Actualización: 12/12/2019 04:00
Partly Cloudy
Partly Cloudy
 Viento del O
Viento: O 19 km/h
Temperatura: 12°C
Rocío: 7°C
Humedad: 72%
Barómetro: 1016 hPa
Nubosidad: Partly Cloudy
Visibilidad: 10 km
Cloud details: Few Clouds 732 m
Partly Cloudy 975 m
2019/12/12 03:00 LEMH 120300Z AUTO 26010KT 230V290 9999 FEW024/// SCT032/// 12/07 Q1016
LEMO - Morón de La Frontera
Actualización: 12/12/2019 04:00
Despejado
Despejado
 Viento del calm
Viento: Calma
Temperatura: 3°C
Rocío: 1°C
Humedad: 87%
Barómetro: 1028 hPa
Resumen: Despejado
Visibilidad: greater than 10 km
2019/12/12 03:00 LEMO 120300Z 00000KT CAVOK 03/01 Q1028 NOSIG
LEMI - Murcia/Corvera
Actualización: 12/12/2019 04:00
Despejado
Despejado
 Viento del OSO
Viento: OSO 15 km/h
Temperatura: 11°C
Rocío: 1°C
Humedad: 50%
Barómetro: 1022 hPa
Nubosidad: Despejado
Visibilidad: 10 km
2019/12/12 03:00 LEMI 120300Z AUTO 25008KT 200V290 9999 NCD 11/01 Q1022
 
LERI - Murcia/Alcantarilla
Actualización: 11/12/2019 19:00
NO Actualizado
Despejado
Despejado
 Viento del ONO
Viento: ONO 15 km/h
Temperatura: 15°C
Rocío: 6°C
Humedad: 55%
Barómetro: 1021 hPa
Resumen: Despejado
Visibilidad: greater than 10 km
2019/12/11 18:00 LERI 111800Z 30008KT 270V330 CAVOK 15/06 Q1021 NOSIG
LELC - Murcia/San Javier
Actualización: 12/12/2019 04:00
Despejado
Despejado
 Viento del ONO
Viento: ONO 26 km/h
Temperatura: 13°C
Rocío: 2°C
Humedad: 47%
Barómetro: 1022 hPa
Nubosidad: Despejado
Visibilidad: 10 km
2019/12/12 03:00 LELC 120300Z AUTO 29014KT 9999 NCD 13/02 Q1022
LEPA - Palma de Mallorca
Actualización: 12/12/2019 04:00
Partly Cloudy
Partly Cloudy
 Viento del OSO
Viento: OSO 15 km/h
Temperatura: 13°C
Rocío: 6°C
Humedad: 63%
Barómetro: 1017 hPa
Nubosidad: Partly Cloudy
Visibilidad: 10 km
Cloud details: Few Clouds 610 m
Partly Cloudy 1829 m
2019/12/12 03:00 LEPA 120300Z 25008KT 9999 FEW020 SCT060 13/06 Q1017 NOSIG
 
LEPP - Pamplona
Actualización: 12/12/2019 04:00
Lluvia débil, Muy nuboso
Lluvia débil, Muy nuboso
 Viento del NO
Viento: NO 4 km/h
Temperatura: 5°C
Rocío: 5°C
Humedad: 100%
Barómetro: 1018 hPa
Resumen: Light Rain
Nubosidad: Mostly Cloudy
Visibilidad: 10 km
Cloud details: Partly Cloudy 1067 m
Partly Cloudy 1341 m
Mostly Cloudy 1524 m
2019/12/12 03:00 LEPP 120300Z AUTO 32002KT 9999 -RA SCT035 SCT044 BKN050 05/05 Q1018
LERS - Reus
Actualización: 12/12/2019 04:00
Despejado
Despejado
 Viento del O
Viento: O 30 km/h
Temperatura: 11°C
Rocío: 2°C
Humedad: 54%
Barómetro: 1016 hPa
Nubosidad: Despejado
Visibilidad: 10 km
2019/12/12 03:00 LERS 120300Z AUTO 27016KT 230V300 9999 NCD 11/02 Q1016
LERT - Rota
Actualización: 12/12/2019 04:00
Despejado
Despejado
 Viento del NNO
Viento: NNO 6 km/h
Temperatura: 7°C
Rocío: 4°C
Humedad: 81%
Barómetro: 1028 hPa
Resumen: Despejado
Visibilidad: greater than 10 km
2019/12/12 03:00 LERT 120300Z 34003KT 320V050 CAVOK 07/04 Q1028 NOSIG
 
LELL - Sabadell
Actualización: 12/12/2019 04:00
Despejado
Despejado
 Viento del O
Viento: O 9 km/h
Temperatura: 6°C
Wind Chill: 4°C
Rocío: 2°C
Humedad: 76%
Barómetro: 1015 hPa
Nubosidad: Despejado
Visibilidad: 10 km
2019/12/12 03:00 LELL 120300Z AUTO 26005KT 9999 NCD 06/02 Q1015
LESA - Salamanca
Actualización: 12/12/2019 04:00
Few Clouds
Few Clouds
 Viento del O
Viento: O 17 km/h
Temperatura: 4°C
Wind Chill: 0°C
Rocío: 2°C
Humedad: 87%
Barómetro: 1024 hPa
Nubosidad: Few Clouds
Visibilidad: 10 km
Cloud details: Few Clouds 792 m
2019/12/12 03:00 LESA 120300Z AUTO 26009KT 9999 FEW026 04/02 Q1024
LESO - San Sebastián
Actualización: 12/12/2019 04:00
LLuvia, Mist, Muy nuboso
LLuvia, Mist, Muy nuboso
 Viento del OSO
Viento: OSO 22 km/h, Racha: 43 km/h
Temperatura: 9°C
Wind Chill: 6°C
Rocío: 8°C
Humedad: 94%
Barómetro: 1018 hPa
Resumen: LLuvia, Mist
Nubosidad: Mostly Cloudy
Visibilidad: 5 km
Cloud details: Few Clouds 1067 m
Partly Cloudy 1372 m
Mostly Cloudy 1524 m
2019/12/12 03:00 LESO 120300Z AUTO 24012G23KT 200V280 4900 RA BR FEW035 SCT045 BKN050 09/08 Q1018
 
LEXJ - Santander
Actualización: 12/12/2019 04:00
Lluvia débil, Muy nuboso
Lluvia débil, Muy nuboso
 Viento del SO
Viento: SO 6 km/h
Temperatura: 10°C
Rocío: 8°C
Humedad: 88%
Barómetro: 1019 hPa
Resumen: Light Rain
Nubosidad: Mostly Cloudy
Visibilidad: 7 km
Cloud details: Mostly Cloudy 1219 m
2019/12/12 03:00 LEXJ 120300Z 23003KT 190V260 7000 -RA BKN040 10/08 Q1019
LEPA - Palma de Mallorca
Actualización: 12/12/2019 04:00
Partly Cloudy
Partly Cloudy
 Viento del OSO
Viento: OSO 15 km/h
Temperatura: 13°C
Rocío: 6°C
Humedad: 63%
Barómetro: 1017 hPa
Nubosidad: Partly Cloudy
Visibilidad: 10 km
Cloud details: Few Clouds 610 m
Partly Cloudy 1829 m
2019/12/12 03:00 LEPA 120300Z 25008KT 9999 FEW020 SCT060 13/06 Q1017 NOSIG
LEPP - Pamplona
Actualización: 12/12/2019 04:00
Lluvia débil, Muy nuboso
Lluvia débil, Muy nuboso
 Viento del NO
Viento: NO 4 km/h
Temperatura: 5°C
Rocío: 5°C
Humedad: 100%
Barómetro: 1018 hPa
Resumen: Light Rain
Nubosidad: Mostly Cloudy
Visibilidad: 10 km
Cloud details: Partly Cloudy 1067 m
Partly Cloudy 1341 m
Mostly Cloudy 1524 m
2019/12/12 03:00 LEPP 120300Z AUTO 32002KT 9999 -RA SCT035 SCT044 BKN050 05/05 Q1018
 
LEST - Santiago de Compostela
Actualización: 12/12/2019 04:00
Lluvia débil, Muy nuboso
Lluvia débil, Muy nuboso
 Viento del O
Viento: O 17 km/h
Temperatura: 9°C
Wind Chill: 7°C
Rocío: 9°C
Humedad: 100%
Barómetro: 1022 hPa
Resumen: Light Rain
Nubosidad: Mostly Cloudy
Visibilidad: 2 km
Cloud details: Partly Cloudy 183 m
Mostly Cloudy 305 m
Mostly Cloudy 427 m
2019/12/12 03:00 LEST 120300Z 28009KT 230V320 2000 -RA SCT006 BKN010 BKN014 09/09 Q1022 TEMPO 3000 RA BKN005
LEZL - Sevilla
Actualización: 12/12/2019 04:00
Despejado
Despejado
 Viento del calm
Viento: Calma
Temperatura: 6°C
Rocío: 4°C
Humedad: 87%
Barómetro: 1028 hPa
Resumen: Despejado
Visibilidad: greater than 10 km
2019/12/12 03:00 LEZL 120300Z 00000KT CAVOK 06/04 Q1028 NOSIG
GCXO - Tenerife
Actualización: 12/12/2019 04:00
Despejado
Despejado
 Viento del varies
Viento: varies 4 km/h
Temperatura: 13°C
Rocío: 10°C
Humedad: 82%
Barómetro: 1028 hPa
Nubosidad: Despejado
Visibilidad: 10 km
2019/12/12 03:00 GCXO 120300Z AUTO VRB02KT 9999 NCD 13/10 Q1028
 
GCTS - Tenerife-Sur
Actualización: 12/12/2019 04:00
Few Clouds
Few Clouds
 Viento del NE
Viento: NE 24 km/h
Temperatura: 18°C
Rocío: 10°C
Humedad: 60%
Barómetro: 1025 hPa
Nubosidad: Few Clouds
Visibilidad: 10 km
Cloud details: Few Clouds 762 m
2019/12/12 03:00 GCTS 120300Z 04013KT 010V070 9999 FEW025 18/10 Q1025 NOSIG
LEVC - Valencia
Actualización: 12/12/2019 04:00
Despejado
Despejado
 Viento del O
Viento: O 30 km/h
Temperatura: 10°C
Wind Chill: 7°C
Rocío: 3°C
Humedad: 62%
Barómetro: 1021 hPa
Resumen: Despejado
Visibilidad: greater than 10 km
2019/12/12 03:00 LEVC 120300Z 27016KT CAVOK 10/03 Q1021 NOSIG
LEVD - Valladolid
Actualización: 12/12/2019 04:00
Cubierto
Cubierto
 Viento del O
Viento: O 26 km/h
Temperatura: 3°C
Wind Chill: -2°C
Rocío: 3°C
Humedad: 100%
Barómetro: 1022 hPa
Nubosidad: Cubierto
Visibilidad: 10 km
Cloud details: Cubierto 122 m
2019/12/12 03:00 LEVD 120300Z AUTO 26014KT 9999 OVC004 03/03 Q1022
 
LEVX - Vigo
Actualización: 12/12/2019 04:00
Mostly Cloudy
Mostly Cloudy
 Viento del SO
Viento: SO 15 km/h
Temperatura: 11°C
Rocío: 10°C
Humedad: 94%
Barómetro: 1024 hPa
Nubosidad: Mostly Cloudy
Visibilidad: 10 km
Cloud details: Partly Cloudy 213 m
Mostly Cloudy 366 m
Mostly Cloudy 610 m
2019/12/12 03:00 LEVX 120300Z 23008KT 200V280 9999 SCT007 BKN012 BKN020 11/10 Q1024 TEMPO 3000 RA
LEVT - Vitoria
Actualización: 12/12/2019 04:00
Mostly Cloudy
Mostly Cloudy
 Viento del SSO
Viento: SSO 13 km/h
Temperatura: 6°C
Wind Chill: 3°C
Rocío: 3°C
Humedad: 81%
Barómetro: 1018 hPa
Nubosidad: Mostly Cloudy
Visibilidad: 10 km
Cloud details: Few Clouds 914 m
Mostly Cloudy 1128 m
2019/12/12 03:00 LEVT 120300Z 21007KT 180V240 9999 FEW030 BKN037 06/03 Q1018
LEZG - Zaragoza
Actualización: 12/12/2019 04:00
Few Clouds
Few Clouds
 Viento del SO
Viento: SO 11 km/h
Temperatura: 5°C
Wind Chill: 2°C
Rocío: 3°C
Humedad: 87%
Barómetro: 1019 hPa
Nubosidad: Few Clouds
Visibilidad: 10 km
Cloud details: Few Clouds 2438 m
2019/12/12 03:00 LEZG 120300Z 23006KT 9999 FEW080 05/03 Q1019

La estación de MeteoMurcia.com, publica sus datos en los siguientes proyectos:

Weather Underground PWS IMURCIAP2 Meteoclimatic www.awekas.at

W3Counter
Web Analytics